createdAt,value
2024-03-18T00:00:20.824Z,98895.50
2024-03-18T00:03:06.049Z,98878.03
2024-03-18T00:05:50.794Z,98877.25
2024-03-18T00:08:35.897Z,98880.78
2024-03-18T00:11:21.067Z,98876.50
2024-03-18T00:14:06.115Z,98874.31
2024-03-18T00:16:50.957Z,98873.31
2024-03-18T00:19:35.617Z,98867.84
2024-03-18T00:22:21.488Z,98857.81
2024-03-18T00:25:07.196Z,98866.66
2024-03-18T00:27:52.389Z,98856.47
2024-03-18T00:30:41.500Z,98858.78
2024-03-18T00:33:28.399Z,98862.34
2024-03-18T00:36:12.885Z,98852.53
2024-03-18T00:38:58.379Z,98860.75
2024-03-18T00:41:49.461Z,98855.25
2024-03-18T00:44:34.577Z,98854.69
2024-03-18T00:47:19.394Z,98847.41
2024-03-18T00:50:06.421Z,98854.28
2024-03-18T00:52:51.210Z,98844.66
2024-03-18T00:55:37.384Z,98838.00
2024-03-18T00:58:22.489Z,98847.97
2024-03-18T01:01:10.057Z,98840.72
2024-03-18T01:03:54.788Z,98837.38
2024-03-18T01:06:39.602Z,98833.84
2024-03-18T01:09:24.150Z,98834.06
2024-03-18T01:12:09.626Z,98843.13
2024-03-18T01:14:54.208Z,98828.16
2024-03-18T01:17:39.318Z,98821.31
2024-03-18T01:20:24.634Z,98828.16
2024-03-18T01:23:09.438Z,98829.16
2024-03-18T01:25:54.520Z,98837.59
2024-03-18T01:28:39.832Z,98830.34
2024-03-18T01:31:24.502Z,98829.94
2024-03-18T01:34:10.050Z,98828.97
2024-03-18T01:36:54.771Z,98822.50
2024-03-18T01:39:39.571Z,98828.38
2024-03-18T01:42:24.639Z,98825.44
2024-03-18T01:45:10.188Z,98822.09
2024-03-18T01:47:56.270Z,98816.03
2024-03-18T01:50:42.370Z,98820.72
2024-03-18T01:53:27.449Z,98817.59
2024-03-18T01:56:12.255Z,98809.53
2024-03-18T01:59:04.952Z,98815.06
2024-03-18T02:01:49.981Z,98817.78
2024-03-18T02:04:35.209Z,98816.59
2024-03-18T02:07:23.005Z,98819.94
2024-03-18T02:10:09.919Z,98810.50
2024-03-18T02:13:02.936Z,98815.78
2024-03-18T02:15:47.606Z,98811.69
2024-03-18T02:18:32.637Z,98809.53
2024-03-18T02:21:17.232Z,98824.63
2024-03-18T02:24:07.383Z,98802.47
2024-03-18T02:26:51.871Z,98806.00
2024-03-18T02:29:37.522Z,98810.69
2024-03-18T02:32:22.423Z,98816.00
2024-03-18T02:35:08.761Z,98826.97
2024-03-18T02:37:53.440Z,98816.19
2024-03-18T02:40:38.301Z,98810.13
2024-03-18T02:43:23.252Z,98811.50
2024-03-18T02:46:08.174Z,98819.31
2024-03-18T02:48:52.925Z,98811.88
2024-03-18T02:51:38.217Z,98806.59
2024-03-18T02:54:23.025Z,98804.81
2024-03-18T02:57:08.560Z,98810.69
2024-03-18T02:59:53.783Z,98815.03
2024-03-18T03:02:38.776Z,98804.22
2024-03-18T03:05:23.826Z,98804.44
2024-03-18T03:08:08.748Z,98801.47
2024-03-18T03:10:53.642Z,98797.75
2024-03-18T03:13:39.008Z,98795.97
2024-03-18T03:16:23.773Z,98796.78
2024-03-18T03:19:09.154Z,98795.00
2024-03-18T03:21:54.355Z,98792.03
2024-03-18T03:24:39.244Z,98791.06
2024-03-18T03:27:24.091Z,98795.78
2024-03-18T03:30:09.845Z,98788.91
2024-03-18T03:32:54.637Z,98791.47
2024-03-18T03:35:39.571Z,98793.59
2024-03-18T03:38:24.602Z,98783.19
2024-03-18T03:41:09.529Z,98785.31
2024-03-18T03:43:54.536Z,98780.66
2024-03-18T03:46:39.397Z,98783.41
2024-03-18T03:49:26.115Z,98779.31
2024-03-18T03:52:11.211Z,98778.66
2024-03-18T03:54:56.330Z,98781.03
2024-03-18T03:57:41.484Z,98782.00
2024-03-18T04:00:26.278Z,98779.47
2024-03-18T04:03:22.831Z,98780.47
2024-03-18T04:06:07.329Z,98782.19
2024-03-18T04:08:52.462Z,98786.53
2024-03-18T04:11:38.210Z,98782.81
2024-03-18T04:14:22.919Z,98783.63
2024-03-18T04:17:10.930Z,98791.06
2024-03-18T04:19:55.946Z,98788.91
2024-03-18T04:22:41.168Z,98792.66
2024-03-18T04:25:25.880Z,98790.09
2024-03-18T04:28:11.139Z,98794.22
2024-03-18T04:30:56.111Z,98789.91
2024-03-18T04:33:41.240Z,98787.94
2024-03-18T04:36:25.957Z,98800.69
2024-03-18T04:39:11.326Z,98807.16
2024-03-18T04:41:56.081Z,98795.38
2024-03-18T04:44:40.856Z,98804.81
2024-03-18T04:47:26.858Z,98804.03
2024-03-18T04:50:13.092Z,98808.75
2024-03-18T04:52:58.020Z,98819.75
2024-03-18T04:55:42.812Z,98813.28
2024-03-18T04:58:27.934Z,98811.31
2024-03-18T05:01:12.802Z,98815.25
2024-03-18T05:03:59.792Z,98812.09
2024-03-18T05:06:44.391Z,98809.72
2024-03-18T05:09:29.287Z,98814.63
2024-03-18T05:12:14.301Z,98818.56
2024-03-18T05:14:59.706Z,98831.72
2024-03-18T05:17:45.451Z,98825.03
2024-03-18T05:20:30.749Z,98831.13
2024-03-18T05:23:16.166Z,98830.13
2024-03-18T05:26:00.843Z,98832.09
2024-03-18T05:28:45.769Z,98827.81
2024-03-18T05:31:31.645Z,98834.47
2024-03-18T05:34:16.321Z,98831.72
2024-03-18T05:37:01.810Z,98840.94
2024-03-18T05:39:46.761Z,98840.94
2024-03-18T05:42:35.819Z,98847.22
2024-03-18T05:45:20.660Z,98838.00
2024-03-18T05:48:08.220Z,98836.00
2024-03-18T05:50:53.790Z,98836.63
2024-03-18T05:53:39.426Z,98838.19
2024-03-18T05:56:24.452Z,98837.00
2024-03-18T05:59:12.808Z,98850.16
2024-03-18T06:01:57.498Z,98853.09
2024-03-18T06:04:42.727Z,98851.97
2024-03-18T06:07:27.526Z,98851.56
2024-03-18T06:10:12.811Z,98852.34
2024-03-18T06:12:58.090Z,98850.97
2024-03-18T06:15:43.656Z,98857.03
2024-03-18T06:18:29.382Z,98864.88
2024-03-18T06:21:17.625Z,98864.28
2024-03-18T06:24:08.032Z,98861.53
2024-03-18T06:27:36.502Z,98865.44
2024-03-18T06:30:25.886Z,98847.41
2024-03-18T06:33:14.811Z,98873.09
2024-03-18T06:36:03.263Z,98850.91
2024-03-18T06:38:50.393Z,98864.44
2024-03-18T06:41:35.924Z,98860.91
2024-03-18T06:45:20.732Z,98856.41
2024-03-18T06:49:06.755Z,98832.25
2024-03-18T06:52:11.493Z,98836.78
2024-03-18T06:55:03.785Z,98839.75
2024-03-18T06:58:16.309Z,98875.28
2024-03-18T07:05:01.371Z,98853.72
2024-03-18T07:08:18.632Z,98834.88
2024-03-18T07:11:28.174Z,98831.53
2024-03-18T07:14:16.684Z,98865.88
2024-03-18T07:20:15.382Z,98855.88
2024-03-18T07:23:03.238Z,98866.88
2024-03-18T07:25:54.634Z,98878.84
2024-03-18T07:28:59.593Z,98859.59
2024-03-18T07:31:51.038Z,98860.56
2024-03-18T07:34:55.460Z,98880.22
2024-03-18T07:37:48.942Z,98865.28
2024-03-18T07:40:44.258Z,98869.56
2024-03-18T07:43:29.917Z,98862.34
2024-03-18T07:46:40.610Z,98871.38
2024-03-18T07:49:26.380Z,98864.09
2024-03-18T07:52:11.766Z,98855.25
2024-03-18T07:55:00.852Z,98843.09
2024-03-18T07:57:49.632Z,98840.16
2024-03-18T08:00:40.113Z,98854.69
2024-03-18T08:03:25.491Z,98852.72
2024-03-18T08:06:11.614Z,98865.22
2024-03-18T08:09:07.215Z,98856.19
2024-03-18T08:11:57.172Z,98859.94
2024-03-18T08:14:46.206Z,98855.19
2024-03-18T08:17:37.382Z,98849.41
2024-03-18T08:20:24.930Z,98846.91
2024-03-18T08:23:14.511Z,98858.53
2024-03-18T08:26:27.185Z,98869.34
2024-03-18T08:29:21.088Z,98831.19
2024-03-18T08:32:22.845Z,98850.53
2024-03-18T08:35:31.326Z,98872.00
2024-03-18T08:38:19.217Z,98849.63
2024-03-18T08:41:11.531Z,98859.22
2024-03-18T08:43:58.927Z,98855.19
2024-03-18T08:46:47.965Z,98856.22
2024-03-18T08:49:33.196Z,98855.97
2024-03-18T08:52:18.509Z,98851.69
2024-03-18T08:55:05.216Z,98852.59
2024-03-18T08:57:53.668Z,98854.22
2024-03-18T09:00:58.816Z,98849.78
2024-03-18T09:04:02.198Z,98850.03
2024-03-18T09:06:52.174Z,98850.56
2024-03-18T09:09:39.451Z,98833.63
2024-03-18T09:12:28.510Z,98852.91
2024-03-18T09:15:14.642Z,98847.09
2024-03-18T09:18:15.263Z,98850.13
2024-03-18T09:21:15.132Z,98842.19
2024-03-18T09:24:01.864Z,98860.34
2024-03-18T09:26:47.483Z,98848.53
2024-03-18T09:29:40.125Z,98865.38
2024-03-18T09:32:26.352Z,98860.41
2024-03-18T09:35:11.879Z,98860.31
2024-03-18T09:37:57.484Z,98850.06
2024-03-18T09:40:52.277Z,98862.31
2024-03-18T09:44:02.824Z,98854.38
2024-03-18T09:46:59.075Z,98857.47
2024-03-18T09:49:51.691Z,98851.69
2024-03-18T09:52:47.806Z,98856.25
2024-03-18T09:55:35.986Z,98856.34
2024-03-18T09:58:23.098Z,98841.25
2024-03-18T10:01:16.175Z,98850.19
2024-03-18T10:04:06.704Z,98856.34
2024-03-18T10:07:04.539Z,98840.09
2024-03-18T10:10:02.019Z,98855.88
2024-03-18T10:12:52.894Z,98852.56
2024-03-18T10:15:43.618Z,98838.69
2024-03-18T10:18:40.234Z,98836.31
2024-03-18T10:21:31.196Z,98837.25
2024-03-18T10:24:17.017Z,98840.63
2024-03-18T10:27:26.020Z,98849.47
2024-03-18T10:34:06.922Z,98830.91
2024-03-18T10:37:04.116Z,98850.06
2024-03-18T10:40:42.304Z,98832.53
2024-03-18T10:43:59.886Z,98849.72
2024-03-18T10:47:06.059Z,98823.22
2024-03-18T10:50:06.963Z,98826.66
2024-03-18T10:52:59.922Z,98845.34
2024-03-18T10:55:51.827Z,98838.25
2024-03-18T10:58:47.174Z,98854.78
2024-03-18T11:01:32.863Z,98852.03
2024-03-18T11:04:23.030Z,98854.59
2024-03-18T11:07:20.467Z,98849.72
2024-03-18T11:10:12.322Z,98834.88
2024-03-18T11:13:51.219Z,98820.53
2024-03-18T11:17:25.754Z,98850.34
2024-03-18T11:21:00.924Z,98848.59
2024-03-18T11:24:04.222Z,98847.66
2024-03-18T11:27:08.634Z,98823.78
2024-03-18T11:29:59.515Z,98823.56
2024-03-18T11:33:01.705Z,98824.66
2024-03-18T11:35:58.446Z,98841.66
2024-03-18T11:38:43.407Z,98840.25
2024-03-18T11:41:36.224Z,98825.66
2024-03-18T11:44:22.231Z,98818.44
2024-03-18T11:47:11.556Z,98843.72
2024-03-18T11:50:11.633Z,98821.97
2024-03-18T11:53:04.886Z,98837.13
2024-03-18T11:55:53.270Z,98838.91
2024-03-18T11:58:38.713Z,98841.91
2024-03-18T12:01:29.034Z,98831.88
2024-03-18T12:04:19.417Z,98832.56
2024-03-18T12:07:04.840Z,98843.56
2024-03-18T12:09:50.861Z,98837.53
2024-03-18T12:12:38.957Z,98842.47
2024-03-18T12:15:25.197Z,98848.38
2024-03-18T12:18:11.400Z,98839.31
2024-03-18T12:20:56.967Z,98841.00
2024-03-18T12:24:02.701Z,98830.53
2024-03-18T12:27:09.485Z,98842.50
2024-03-18T12:29:57.309Z,98821.47
2024-03-18T12:32:47.393Z,98834.25
2024-03-18T12:35:32.868Z,98846.97
2024-03-18T12:38:18.327Z,98845.03
2024-03-18T12:41:04.695Z,98844.72
2024-03-18T12:43:49.918Z,98837.06
2024-03-18T12:46:34.783Z,98846.94
2024-03-18T12:49:19.780Z,98836.28
2024-03-18T12:52:09.933Z,98839.97
2024-03-18T12:54:55.330Z,98833.50
2024-03-18T12:57:44.055Z,98841.25
2024-03-18T13:00:29.042Z,98838.47
2024-03-18T13:03:19.015Z,98843.38
2024-03-18T13:06:06.746Z,98843.31
2024-03-18T13:08:51.838Z,98833.09
2024-03-18T13:11:36.790Z,98831.88
2024-03-18T13:14:22.615Z,98837.97
2024-03-18T13:17:12.853Z,98827.69
2024-03-18T13:20:05.697Z,98833.25
2024-03-18T13:22:50.499Z,98832.63
2024-03-18T13:25:49.814Z,98830.25
2024-03-18T13:28:35.223Z,98831.97
2024-03-18T13:31:23.910Z,98835.53
2024-03-18T13:34:18.035Z,98827.13
2024-03-18T13:37:03.500Z,98831.31
2024-03-18T13:39:49.190Z,98841.50
2024-03-18T13:42:34.092Z,98837.13
2024-03-18T13:45:21.913Z,98827.13
2024-03-18T13:48:08.062Z,98840.13
2024-03-18T13:50:53.141Z,98826.72
2024-03-18T13:53:38.793Z,98834.00
2024-03-18T13:56:23.920Z,98822.69
2024-03-18T13:59:11.716Z,98830.66
2024-03-18T14:01:56.926Z,98832.88
2024-03-18T14:04:49.083Z,98822.41
2024-03-18T14:07:36.956Z,98828.13
2024-03-18T14:10:28.259Z,98824.41
2024-03-18T14:13:15.964Z,98824.28
2024-03-18T14:16:00.889Z,98811.56
2024-03-18T14:18:47.283Z,98821.78
2024-03-18T14:21:32.058Z,98819.06
2024-03-18T14:24:18.222Z,98825.13
2024-03-18T14:27:03.440Z,98833.53
2024-03-18T14:29:48.286Z,98824.31
2024-03-18T14:32:33.527Z,98820.19
2024-03-18T14:35:18.817Z,98819.81
2024-03-18T14:38:05.232Z,98826.91
2024-03-18T14:40:50.261Z,98829.00
2024-03-18T14:43:34.915Z,98832.75
2024-03-18T14:46:21.314Z,98819.59
2024-03-18T14:49:07.212Z,98826.50
2024-03-18T14:51:52.394Z,98808.00
2024-03-18T14:54:38.204Z,98812.34
2024-03-18T14:57:23.659Z,98805.94
2024-03-18T15:00:10.266Z,98813.13
2024-03-18T15:02:55.158Z,98814.91
2024-03-18T15:05:40.759Z,98811.16
2024-03-18T15:08:26.672Z,98811.94
2024-03-18T15:11:12.337Z,98824.69
2024-03-18T15:13:57.977Z,98819.19
2024-03-18T15:16:42.691Z,98817.59
2024-03-18T15:19:29.998Z,98822.94
2024-03-18T15:22:15.427Z,98825.66
2024-03-18T15:25:19.567Z,98830.19
2024-03-18T15:28:05.905Z,98833.75
2024-03-18T15:30:50.927Z,98829.66
2024-03-18T15:33:35.752Z,98836.69
2024-03-18T15:36:20.809Z,98833.53
2024-03-18T15:39:12.506Z,98840.59
2024-03-18T15:41:57.223Z,98841.59
2024-03-18T15:44:42.270Z,98839.06
2024-03-18T15:47:27.463Z,98847.69
2024-03-18T15:50:12.489Z,98835.94
2024-03-18T15:52:57.510Z,98829.13
2024-03-18T15:55:43.358Z,98830.53
2024-03-18T15:58:28.298Z,98836.59
2024-03-18T16:01:17.048Z,98844.44
2024-03-18T16:04:02.856Z,98842.09
2024-03-18T16:06:48.107Z,98839.38
2024-03-18T16:09:33.258Z,98849.38
2024-03-18T16:12:18.566Z,98851.72
2024-03-18T16:15:05.573Z,98853.88
2024-03-18T16:17:50.522Z,98850.53
2024-03-18T16:20:38.571Z,98865.84
2024-03-18T16:23:23.532Z,98861.38
2024-03-18T16:26:08.534Z,98862.91
2024-03-18T16:28:53.263Z,98862.91
2024-03-18T16:31:38.831Z,98842.13
2024-03-18T16:34:23.748Z,98861.75
2024-03-18T16:37:08.844Z,98863.94
2024-03-18T16:39:53.963Z,98858.22
2024-03-18T16:42:39.873Z,98870.97
2024-03-18T16:45:25.112Z,98874.53
2024-03-18T16:48:10.367Z,98879.03
2024-03-18T16:50:55.801Z,98873.31
2024-03-18T16:53:40.686Z,98875.69
2024-03-18T16:56:25.724Z,98882.75
2024-03-18T16:59:10.756Z,98867.03
2024-03-18T17:01:55.947Z,98876.28
2024-03-18T17:04:43.940Z,98869.59
2024-03-18T17:07:28.672Z,98881.59
2024-03-18T17:10:15.453Z,98871.56
2024-03-18T17:13:01.171Z,98883.94
2024-03-18T17:15:45.841Z,98887.28
2024-03-18T17:18:30.924Z,98893.38
2024-03-18T17:21:15.893Z,98888.44
2024-03-18T17:24:01.013Z,98892.16
2024-03-18T17:26:45.634Z,98896.50
2024-03-18T17:29:30.922Z,98892.78
2024-03-18T17:32:15.911Z,98893.53
2024-03-18T17:35:00.522Z,98886.47
2024-03-18T17:40:47.120Z,98897.84
2024-03-18T17:43:34.353Z,98899.63
2024-03-18T17:46:19.742Z,98903.91
2024-03-18T17:49:05.625Z,98901.97
2024-03-18T17:51:51.141Z,98907.66
2024-03-18T17:54:36.672Z,98898.03
2024-03-18T17:57:21.729Z,98894.25
2024-03-18T18:00:09.074Z,98904.50
2024-03-18T18:02:53.948Z,98910.34
2024-03-18T18:05:38.924Z,98906.81
2024-03-18T18:08:24.239Z,98915.63
2024-03-18T18:11:09.323Z,98909.28
2024-03-18T18:13:56.211Z,98907.25
2024-03-18T18:16:41.469Z,98899.81
2024-03-18T18:19:30.090Z,98898.00
2024-03-18T18:22:15.258Z,98911.16
2024-03-18T18:25:00.183Z,98911.94
2024-03-18T18:27:45.835Z,98906.38
2024-03-18T18:30:31.685Z,98905.63
2024-03-18T18:33:16.747Z,98910.53
2024-03-18T18:36:01.853Z,98902.84
2024-03-18T18:38:48.509Z,98914.97
2024-03-18T18:41:33.361Z,98906.16
2024-03-18T18:44:18.409Z,98912.25
2024-03-18T18:47:03.217Z,98893.19
2024-03-18T18:49:47.931Z,98902.22
2024-03-18T18:52:46.212Z,98899.06
2024-03-18T18:55:32.159Z,98903.56
2024-03-18T18:58:17.538Z,98902.31
2024-03-18T19:01:02.265Z,98902.97
2024-03-18T19:03:47.034Z,98905.34
2024-03-18T19:06:31.725Z,98900.19
2024-03-18T19:09:19.700Z,98878.59
2024-03-18T19:12:05.057Z,98874.19
2024-03-18T19:14:50.112Z,98887.44
2024-03-18T19:17:36.481Z,98879.97
2024-03-18T19:20:21.741Z,98879.09
2024-03-18T19:23:06.953Z,98890.97
2024-03-18T19:25:56.253Z,98874.84
2024-03-18T19:28:42.009Z,98876.97
2024-03-18T19:31:26.757Z,98889.19
2024-03-18T19:34:12.198Z,98888.28
2024-03-18T19:36:57.453Z,98879.16
2024-03-18T19:39:42.235Z,98888.81
2024-03-18T19:42:27.438Z,98875.25
2024-03-18T19:45:12.701Z,98885.88
2024-03-18T19:47:57.833Z,98882.00
2024-03-18T19:50:42.719Z,98873.16
2024-03-18T19:53:27.796Z,98876.31
2024-03-18T19:56:12.728Z,98867.88
2024-03-18T19:58:57.745Z,98869.22
2024-03-18T20:01:42.723Z,98876.91
2024-03-18T20:04:29.891Z,98871.00
2024-03-18T20:07:14.989Z,98863.31
2024-03-18T20:10:00.051Z,98853.09
2024-03-18T20:12:46.116Z,98864.09
2024-03-18T20:15:31.105Z,98861.78
2024-03-18T20:18:16.078Z,98850.78
2024-03-18T20:21:01.229Z,98862.16
2024-03-18T20:23:45.882Z,98859.97
2024-03-18T20:26:31.302Z,98850.94
2024-03-18T20:29:16.270Z,98831.34
2024-03-18T20:32:01.257Z,98848.59
2024-03-18T20:34:47.034Z,98841.69
2024-03-18T20:37:32.380Z,98849.34
2024-03-18T20:40:20.182Z,98837.81
2024-03-18T20:43:04.774Z,98821.91
2024-03-18T20:45:49.574Z,98839.59
2024-03-18T20:48:34.628Z,98828.38
2024-03-18T20:51:19.673Z,98831.31
2024-03-18T20:54:04.680Z,98821.31
2024-03-18T20:56:50.090Z,98833.69
2024-03-18T20:59:35.497Z,98836.03
2024-03-18T21:02:20.230Z,98825.41
2024-03-18T21:05:07.581Z,98836.25
2024-03-18T21:07:52.819Z,98810.16
2024-03-18T21:10:37.709Z,98827.88
2024-03-18T21:13:22.951Z,98816.06
2024-03-18T21:16:08.123Z,98815.69
2024-03-18T21:18:56.902Z,98809.34
2024-03-18T21:21:42.013Z,98806.88
2024-03-18T21:24:26.621Z,98812.59
2024-03-18T21:27:11.827Z,98812.38
2024-03-18T21:29:56.706Z,98807.22
2024-03-18T21:32:42.031Z,98799.78
2024-03-18T21:35:27.147Z,98786.88
2024-03-18T21:38:12.004Z,98792.19
2024-03-18T21:41:00.946Z,98790.78
2024-03-18T21:43:45.987Z,98783.91
2024-03-18T21:46:31.027Z,98790.19
2024-03-18T21:49:15.926Z,98779.00
2024-03-18T21:52:00.885Z,98767.88
2024-03-18T21:54:46.099Z,98770.94
2024-03-18T21:57:31.619Z,98765.66
2024-03-18T22:00:20.923Z,98761.34
2024-03-18T22:03:05.637Z,98756.47
2024-03-18T22:05:50.412Z,98763.75
2024-03-18T22:08:35.779Z,98759.81
2024-03-18T22:11:20.523Z,98754.13
2024-03-18T22:14:05.908Z,98744.09
2024-03-18T22:16:51.367Z,98737.03
2024-03-18T22:19:38.192Z,98746.66
2024-03-18T22:22:23.342Z,98732.72
2024-03-18T22:25:08.432Z,98739.81
2024-03-18T22:27:53.725Z,98732.56
2024-03-18T22:30:38.775Z,98739.97
2024-03-18T22:33:23.802Z,98720.78
2024-03-18T22:36:08.941Z,98728.63
2024-03-18T22:38:53.841Z,98711.13
2024-03-18T22:41:38.895Z,98711.72
2024-03-18T22:44:23.552Z,98716.06
2024-03-18T22:47:08.185Z,98704.72
2024-03-18T22:49:53.022Z,98711.31
2024-03-18T22:52:38.398Z,98714.44
2024-03-18T22:55:23.713Z,98711.13
2024-03-18T22:58:08.801Z,98697.44
2024-03-18T23:00:53.917Z,98698.81
2024-03-18T23:03:38.745Z,98701.38
2024-03-18T23:06:23.879Z,98695.06
2024-03-18T23:09:11.931Z,98706.78
2024-03-18T23:11:56.658Z,98683.88
2024-03-18T23:14:41.900Z,98681.75
2024-03-18T23:17:27.944Z,98685.88
2024-03-18T23:20:13.861Z,98661.19
2024-03-18T23:22:58.731Z,98663.38
2024-03-18T23:25:43.600Z,98672.75
2024-03-18T23:28:29.021Z,98658.50
2024-03-18T23:31:17.112Z,98667.13
2024-03-18T23:34:03.231Z,98658.72
2024-03-18T23:36:48.695Z,98649.69
2024-03-18T23:39:33.431Z,98654.22
2024-03-18T23:42:18.565Z,98643.19
2024-03-18T23:45:03.554Z,98650.50
2024-03-18T23:47:48.247Z,98646.19
2024-03-18T23:50:33.734Z,98635.81
2024-03-18T23:53:18.755Z,98639.34
2024-03-18T23:56:05.083Z,98627.19
2024-03-18T23:58:50.346Z,98631.69
